sensor_id;sensor_type;location;lat;lon;timestamp;P1;durP1;ratioP1;P2;durP2;ratioP2
75400;SDS011;63974;47.538;18.972;2024-01-06T00:02:21;44.75;;;20.73;;
75400;SDS011;63974;47.538;18.972;2024-01-06T00:05:24;39.75;;;18.75;;
75400;SDS011;63974;47.538;18.972;2024-01-06T00:08:27;27.38;;;15.80;;
75400;SDS011;63974;47.538;18.972;2024-01-06T00:11:30;30.10;;;15.47;;
75400;SDS011;63974;47.538;18.972;2024-01-06T00:14:32;28.97;;;14.13;;
75400;SDS011;63974;47.538;18.972;2024-01-06T00:17:35;25.15;;;13.52;;
75400;SDS011;63974;47.538;18.972;2024-01-06T00:20:38;26.70;;;13.55;;
75400;SDS011;63974;47.538;18.972;2024-01-06T00:23:41;23.67;;;12.85;;
75400;SDS011;63974;47.538;18.972;2024-01-06T00:26:44;23.57;;;13.80;;
75400;SDS011;63974;47.538;18.972;2024-01-06T00:29:47;27.73;;;12.60;;
75400;SDS011;63974;47.538;18.972;2024-01-06T00:32:49;25.13;;;12.68;;
75400;SDS011;63974;47.538;18.972;2024-01-06T00:35:52;25.80;;;13.57;;
75400;SDS011;63974;47.538;18.972;2024-01-06T00:38:57;26.63;;;13.10;;
75400;SDS011;63974;47.538;18.972;2024-01-06T00:42:00;27.40;;;14.33;;
75400;SDS011;63974;47.538;18.972;2024-01-06T00:45:02;25.40;;;13.53;;
75400;SDS011;63974;47.538;18.972;2024-01-06T00:48:06;24.60;;;12.35;;
75400;SDS011;63974;47.538;18.972;2024-01-06T00:51:09;29.00;;;13.50;;
75400;SDS011;63974;47.538;18.972;2024-01-06T00:54:12;35.47;;;16.60;;
75400;SDS011;63974;47.538;18.972;2024-01-06T00:57:15;31.60;;;14.87;;
75400;SDS011;63974;47.538;18.972;2024-01-06T01:00:18;28.60;;;14.00;;
75400;SDS011;63974;47.538;18.972;2024-01-06T01:03:21;26.88;;;14.13;;
75400;SDS011;63974;47.538;18.972;2024-01-06T01:06:24;24.67;;;14.00;;
75400;SDS011;63974;47.538;18.972;2024-01-06T01:09:27;32.50;;;16.02;;
75400;SDS011;63974;47.538;18.972;2024-01-06T01:12:30;48.73;;;18.50;;
75400;SDS011;63974;47.538;18.972;2024-01-06T01:15:33;42.87;;;16.83;;
75400;SDS011;63974;47.538;18.972;2024-01-06T01:18:36;36.97;;;15.45;;
75400;SDS011;63974;47.538;18.972;2024-01-06T01:21:39;39.15;;;15.60;;
75400;SDS011;63974;47.538;18.972;2024-01-06T01:24:42;33.92;;;16.60;;
75400;SDS011;63974;47.538;18.972;2024-01-06T01:27:45;36.17;;;16.97;;
75400;SDS011;63974;47.538;18.972;2024-01-06T01:30:48;36.13;;;15.37;;
75400;SDS011;63974;47.538;18.972;2024-01-06T01:33:51;37.70;;;16.88;;
75400;SDS011;63974;47.538;18.972;2024-01-06T01:36:55;32.70;;;16.13;;
75400;SDS011;63974;47.538;18.972;2024-01-06T01:39:58;28.45;;;14.43;;
75400;SDS011;63974;47.538;18.972;2024-01-06T01:43:02;31.80;;;14.80;;
75400;SDS011;63974;47.538;18.972;2024-01-06T01:46:05;30.43;;;15.50;;
75400;SDS011;63974;47.538;18.972;2024-01-06T01:49:08;36.65;;;16.60;;
75400;SDS011;63974;47.538;18.972;2024-01-06T01:52:11;35.00;;;17.63;;
75400;SDS011;63974;47.538;18.972;2024-01-06T01:55:15;33.10;;;15.27;;
75400;SDS011;63974;47.538;18.972;2024-01-06T01:58:18;34.53;;;15.77;;
75400;SDS011;63974;47.538;18.972;2024-01-06T02:01:21;29.10;;;15.73;;
75400;SDS011;63974;47.538;18.972;2024-01-06T02:04:24;31.50;;;15.02;;
75400;SDS011;63974;47.538;18.972;2024-01-06T02:07:27;33.10;;;15.48;;
75400;SDS011;63974;47.538;18.972;2024-01-06T02:10:30;29.92;;;14.88;;
75400;SDS011;63974;47.538;18.972;2024-01-06T02:13:33;29.00;;;15.57;;
75400;SDS011;63974;47.538;18.972;2024-01-06T02:16:37;30.40;;;14.93;;
75400;SDS011;63974;47.538;18.972;2024-01-06T02:19:40;32.15;;;15.57;;
75400;SDS011;63974;47.538;18.972;2024-01-06T02:22:43;34.15;;;16.40;;
75400;SDS011;63974;47.538;18.972;2024-01-06T02:25:45;35.63;;;16.05;;
75400;SDS011;63974;47.538;18.972;2024-01-06T02:28:48;28.33;;;14.90;;
75400;SDS011;63974;47.538;18.972;2024-01-06T02:31:51;34.00;;;16.33;;
75400;SDS011;63974;47.538;18.972;2024-01-06T02:34:54;32.92;;;15.52;;
75400;SDS011;63974;47.538;18.972;2024-01-06T02:37:57;37.03;;;15.75;;
75400;SDS011;63974;47.538;18.972;2024-01-06T02:41:00;41.47;;;17.25;;
75400;SDS011;63974;47.538;18.972;2024-01-06T02:44:03;35.07;;;16.80;;
75400;SDS011;63974;47.538;18.972;2024-01-06T02:47:06;37.70;;;17.20;;
75400;SDS011;63974;47.538;18.972;2024-01-06T02:50:09;30.25;;;14.63;;
75400;SDS011;63974;47.538;18.972;2024-01-06T02:53:12;27.35;;;14.40;;
75400;SDS011;63974;47.538;18.972;2024-01-06T02:56:15;26.35;;;14.50;;
75400;SDS011;63974;47.538;18.972;2024-01-06T02:59:18;24.67;;;13.37;;
75400;SDS011;63974;47.538;18.972;2024-01-06T03:02:21;29.20;;;14.47;;
75400;SDS011;63974;47.538;18.972;2024-01-06T03:05:24;23.35;;;13.10;;
75400;SDS011;63974;47.538;18.972;2024-01-06T03:08:27;25.67;;;13.05;;
75400;SDS011;63974;47.538;18.972;2024-01-06T03:11:29;23.60;;;13.63;;
75400;SDS011;63974;47.538;18.972;2024-01-06T03:14:35;23.13;;;12.97;;
75400;SDS011;63974;47.538;18.972;2024-01-06T03:17:38;25.73;;;14.27;;
75400;SDS011;63974;47.538;18.972;2024-01-06T03:20:41;20.83;;;12.85;;
75400;SDS011;63974;47.538;18.972;2024-01-06T03:23:44;26.25;;;13.95;;
75400;SDS011;63974;47.538;18.972;2024-01-06T03:26:46;26.63;;;12.27;;
75400;SDS011;63974;47.538;18.972;2024-01-06T03:29:49;25.87;;;12.80;;
75400;SDS011;63974;47.538;18.972;2024-01-06T03:32:52;32.73;;;15.10;;
75400;SDS011;63974;47.538;18.972;2024-01-06T03:35:55;38.80;;;18.38;;
75400;SDS011;63974;47.538;18.972;2024-01-06T03:38:58;45.65;;;22.27;;
75400;SDS011;63974;47.538;18.972;2024-01-06T03:42:01;38.40;;;17.70;;
75400;SDS011;63974;47.538;18.972;2024-01-06T03:45:05;35.83;;;17.47;;
75400;SDS011;63974;47.538;18.972;2024-01-06T03:48:09;34.77;;;16.97;;
75400;SDS011;63974;47.538;18.972;2024-01-06T03:51:12;36.38;;;15.48;;
75400;SDS011;63974;47.538;18.972;2024-01-06T03:54:15;29.27;;;16.35;;
75400;SDS011;63974;47.538;18.972;2024-01-06T03:57:17;30.73;;;15.30;;
75400;SDS011;63974;47.538;18.972;2024-01-06T04:00:20;33.93;;;14.90;;
75400;SDS011;63974;47.538;18.972;2024-01-06T04:03:23;32.77;;;13.27;;
75400;SDS011;63974;47.538;18.972;2024-01-06T04:06:26;27.60;;;13.90;;
75400;SDS011;63974;47.538;18.972;2024-01-06T04:09:29;27.27;;;13.70;;
75400;SDS011;63974;47.538;18.972;2024-01-06T04:12:31;34.05;;;15.68;;
75400;SDS011;63974;47.538;18.972;2024-01-06T04:15:34;30.40;;;14.20;;
75400;SDS011;63974;47.538;18.972;2024-01-06T04:18:37;39.27;;;15.87;;
75400;SDS011;63974;47.538;18.972;2024-01-06T04:21:40;32.80;;;15.68;;
75400;SDS011;63974;47.538;18.972;2024-01-06T04:24:43;29.45;;;14.80;;
75400;SDS011;63974;47.538;18.972;2024-01-06T04:27:46;28.23;;;13.93;;
75400;SDS011;63974;47.538;18.972;2024-01-06T04:30:49;28.50;;;14.23;;
75400;SDS011;63974;47.538;18.972;2024-01-06T04:33:54;24.13;;;11.97;;
75400;SDS011;63974;47.538;18.972;2024-01-06T04:36:57;23.55;;;11.25;;
75400;SDS011;63974;47.538;18.972;2024-01-06T04:40:00;28.42;;;14.25;;
75400;SDS011;63974;47.538;18.972;2024-01-06T04:43:03;27.90;;;14.25;;
75400;SDS011;63974;47.538;18.972;2024-01-06T04:46:06;31.70;;;14.77;;
75400;SDS011;63974;47.538;18.972;2024-01-06T04:49:09;38.30;;;19.07;;
75400;SDS011;63974;47.538;18.972;2024-01-06T04:52:13;43.92;;;17.67;;
75400;SDS011;63974;47.538;18.972;2024-01-06T04:55:15;30.60;;;16.27;;
75400;SDS011;63974;47.538;18.972;2024-01-06T04:58:18;24.00;;;13.52;;
75400;SDS011;63974;47.538;18.972;2024-01-06T05:01:21;24.33;;;12.57;;
75400;SDS011;63974;47.538;18.972;2024-01-06T05:04:25;26.50;;;12.77;;
75400;SDS011;63974;47.538;18.972;2024-01-06T05:07:27;21.58;;;12.20;;
75400;SDS011;63974;47.538;18.972;2024-01-06T05:10:30;26.85;;;13.70;;
75400;SDS011;63974;47.538;18.972;2024-01-06T05:13:33;30.08;;;13.90;;
75400;SDS011;63974;47.538;18.972;2024-01-06T05:16:36;23.03;;;12.50;;
75400;SDS011;63974;47.538;18.972;2024-01-06T05:19:39;26.80;;;13.80;;
75400;SDS011;63974;47.538;18.972;2024-01-06T05:22:42;27.65;;;13.88;;
75400;SDS011;63974;47.538;18.972;2024-01-06T05:25:45;28.60;;;13.07;;
75400;SDS011;63974;47.538;18.972;2024-01-06T05:28:48;25.98;;;11.77;;
75400;SDS011;63974;47.538;18.972;2024-01-06T05:31:51;26.80;;;13.00;;
75400;SDS011;63974;47.538;18.972;2024-01-06T05:34:54;23.47;;;12.63;;
75400;SDS011;63974;47.538;18.972;2024-01-06T05:37:57;23.92;;;13.40;;
75400;SDS011;63974;47.538;18.972;2024-01-06T05:41:00;22.13;;;12.27;;
75400;SDS011;63974;47.538;18.972;2024-01-06T05:44:03;24.13;;;11.70;;
75400;SDS011;63974;47.538;18.972;2024-01-06T05:47:06;21.77;;;13.17;;
75400;SDS011;63974;47.538;18.972;2024-01-06T05:50:11;23.07;;;11.67;;
75400;SDS011;63974;47.538;18.972;2024-01-06T05:53:13;19.20;;;11.23;;
75400;SDS011;63974;47.538;18.972;2024-01-06T05:56:24;22.88;;;12.95;;
75400;SDS011;63974;47.538;18.972;2024-01-06T05:59:28;25.60;;;12.52;;
75400;SDS011;63974;47.538;18.972;2024-01-06T06:02:30;24.00;;;11.67;;
75400;SDS011;63974;47.538;18.972;2024-01-06T06:05:34;24.33;;;11.37;;
75400;SDS011;63974;47.538;18.972;2024-01-06T06:08:37;24.23;;;11.98;;
75400;SDS011;63974;47.538;18.972;2024-01-06T06:11:39;23.23;;;11.45;;
75400;SDS011;63974;47.538;18.972;2024-01-06T06:14:42;19.73;;;10.52;;
75400;SDS011;63974;47.538;18.972;2024-01-06T06:17:45;20.67;;;12.23;;
75400;SDS011;63974;47.538;18.972;2024-01-06T06:20:48;22.17;;;12.93;;
75400;SDS011;63974;47.538;18.972;2024-01-06T06:23:51;25.25;;;12.90;;
75400;SDS011;63974;47.538;18.972;2024-01-06T06:26:54;28.42;;;14.73;;
75400;SDS011;63974;47.538;18.972;2024-01-06T06:29:56;26.48;;;13.85;;
75400;SDS011;63974;47.538;18.972;2024-01-06T06:32:59;21.83;;;13.80;;
75400;SDS011;63974;47.538;18.972;2024-01-06T06:36:02;25.90;;;13.97;;
75400;SDS011;63974;47.538;18.972;2024-01-06T06:39:06;27.77;;;15.43;;
75400;SDS011;63974;47.538;18.972;2024-01-06T06:42:08;27.80;;;17.10;;
75400;SDS011;63974;47.538;18.972;2024-01-06T06:45:11;26.15;;;15.18;;
75400;SDS011;63974;47.538;18.972;2024-01-06T06:48:14;21.83;;;13.70;;
75400;SDS011;63974;47.538;18.972;2024-01-06T06:51:17;25.70;;;14.30;;
75400;SDS011;63974;47.538;18.972;2024-01-06T06:54:20;24.25;;;13.90;;
75400;SDS011;63974;47.538;18.972;2024-01-06T06:57:23;23.15;;;13.23;;
75400;SDS011;63974;47.538;18.972;2024-01-06T07:00:26;20.92;;;12.07;;
75400;SDS011;63974;47.538;18.972;2024-01-06T07:03:29;27.67;;;14.70;;
75400;SDS011;63974;47.538;18.972;2024-01-06T07:06:32;26.23;;;14.70;;
75400;SDS011;63974;47.538;18.972;2024-01-06T07:09:34;27.98;;;13.93;;
75400;SDS011;63974;47.538;18.972;2024-01-06T07:12:37;35.30;;;15.23;;
75400;SDS011;63974;47.538;18.972;2024-01-06T07:15:40;26.17;;;14.32;;
75400;SDS011;63974;47.538;18.972;2024-01-06T07:18:43;28.03;;;14.63;;
75400;SDS011;63974;47.538;18.972;2024-01-06T07:21:46;23.50;;;13.37;;
75400;SDS011;63974;47.538;18.972;2024-01-06T07:24:49;27.10;;;14.52;;
75400;SDS011;63974;47.538;18.972;2024-01-06T07:27:52;32.00;;;15.45;;
75400;SDS011;63974;47.538;18.972;2024-01-06T07:30:56;40.15;;;17.40;;
75400;SDS011;63974;47.538;18.972;2024-01-06T07:33:59;40.97;;;19.07;;
75400;SDS011;63974;47.538;18.972;2024-01-06T07:37:02;23.87;;;11.53;;
75400;SDS011;63974;47.538;18.972;2024-01-06T07:40:05;47.72;;;21.38;;
75400;SDS011;63974;47.538;18.972;2024-01-06T07:43:08;55.42;;;22.30;;
75400;SDS011;63974;47.538;18.972;2024-01-06T07:46:11;68.70;;;26.38;;
75400;SDS011;63974;47.538;18.972;2024-01-06T07:49:14;78.53;;;28.23;;
75400;SDS011;63974;47.538;18.972;2024-01-06T07:52:18;74.73;;;27.10;;
75400;SDS011;63974;47.538;18.972;2024-01-06T07:55:21;79.07;;;29.13;;
75400;SDS011;63974;47.538;18.972;2024-01-06T07:58:23;71.40;;;27.25;;
75400;SDS011;63974;47.538;18.972;2024-01-06T08:01:26;49.67;;;22.55;;
75400;SDS011;63974;47.538;18.972;2024-01-06T08:04:29;34.40;;;16.70;;
75400;SDS011;63974;47.538;18.972;2024-01-06T08:07:32;28.10;;;14.70;;
75400;SDS011;63974;47.538;18.972;2024-01-06T08:10:35;32.65;;;16.08;;
75400;SDS011;63974;47.538;18.972;2024-01-06T08:13:38;32.95;;;16.05;;
75400;SDS011;63974;47.538;18.972;2024-01-06T08:16:40;29.45;;;14.95;;
75400;SDS011;63974;47.538;18.972;2024-01-06T08:19:43;26.73;;;13.27;;
75400;SDS011;63974;47.538;18.972;2024-01-06T08:22:49;26.50;;;13.63;;
75400;SDS011;63974;47.538;18.972;2024-01-06T08:25:51;24.75;;;12.93;;
75400;SDS011;63974;47.538;18.972;2024-01-06T08:28:54;23.20;;;11.43;;
75400;SDS011;63974;47.538;18.972;2024-01-06T08:31:57;20.75;;;11.48;;
75400;SDS011;63974;47.538;18.972;2024-01-06T08:35:00;24.53;;;12.60;;
75400;SDS011;63974;47.538;18.972;2024-01-06T08:38:02;24.80;;;13.07;;
75400;SDS011;63974;47.538;18.972;2024-01-06T08:41:05;24.80;;;13.38;;
75400;SDS011;63974;47.538;18.972;2024-01-06T08:44:08;21.80;;;12.38;;
75400;SDS011;63974;47.538;18.972;2024-01-06T08:47:11;27.70;;;14.20;;
75400;SDS011;63974;47.538;18.972;2024-01-06T08:50:14;26.03;;;13.77;;
75400;SDS011;63974;47.538;18.972;2024-01-06T08:53:17;17.93;;;11.37;;
75400;SDS011;63974;47.538;18.972;2024-01-06T08:56:20;21.45;;;10.27;;
75400;SDS011;63974;47.538;18.972;2024-01-06T08:59:22;18.10;;;9.63;;
75400;SDS011;63974;47.538;18.972;2024-01-06T09:02:25;17.10;;;9.25;;
75400;SDS011;63974;47.538;18.972;2024-01-06T09:05:30;19.87;;;11.27;;
75400;SDS011;63974;47.538;18.972;2024-01-06T09:08:33;19.70;;;9.77;;
75400;SDS011;63974;47.538;18.972;2024-01-06T09:11:36;16.20;;;9.68;;
75400;SDS011;63974;47.538;18.972;2024-01-06T09:14:39;17.90;;;9.80;;
75400;SDS011;63974;47.538;18.972;2024-01-06T09:17:43;17.85;;;9.63;;
75400;SDS011;63974;47.538;18.972;2024-01-06T09:20:45;16.87;;;9.63;;
75400;SDS011;63974;47.538;18.972;2024-01-06T09:23:51;22.70;;;13.13;;
75400;SDS011;63974;47.538;18.972;2024-01-06T09:26:54;30.17;;;15.02;;
75400;SDS011;63974;47.538;18.972;2024-01-06T09:29:57;51.78;;;30.00;;
75400;SDS011;63974;47.538;18.972;2024-01-06T09:33:00;93.25;;;42.13;;
75400;SDS011;63974;47.538;18.972;2024-01-06T09:36:03;48.70;;;25.70;;
75400;SDS011;63974;47.538;18.972;2024-01-06T09:39:06;35.83;;;18.00;;
75400;SDS011;63974;47.538;18.972;2024-01-06T09:42:10;25.17;;;12.40;;
75400;SDS011;63974;47.538;18.972;2024-01-06T09:45:14;21.95;;;10.52;;
75400;SDS011;63974;47.538;18.972;2024-01-06T09:48:16;18.02;;;10.18;;
75400;SDS011;63974;47.538;18.972;2024-01-06T09:51:21;16.70;;;9.07;;
75400;SDS011;63974;47.538;18.972;2024-01-06T09:54:24;18.47;;;9.70;;
75400;SDS011;63974;47.538;18.972;2024-01-06T09:57:30;16.08;;;9.38;;
75400;SDS011;63974;47.538;18.972;2024-01-06T10:00:34;14.15;;;8.40;;
75400;SDS011;63974;47.538;18.972;2024-01-06T10:03:37;15.48;;;8.77;;
75400;SDS011;63974;47.538;18.972;2024-01-06T10:06:41;15.60;;;9.33;;
75400;SDS011;63974;47.538;18.972;2024-01-06T10:09:44;16.70;;;10.00;;
75400;SDS011;63974;47.538;18.972;2024-01-06T10:12:47;15.25;;;9.10;;
75400;SDS011;63974;47.538;18.972;2024-01-06T10:15:50;15.68;;;9.75;;
75400;SDS011;63974;47.538;18.972;2024-01-06T10:18:53;14.90;;;9.50;;
75400;SDS011;63974;47.538;18.972;2024-01-06T10:21:56;14.37;;;9.00;;
75400;SDS011;63974;47.538;18.972;2024-01-06T10:25:06;12.93;;;8.73;;
75400;SDS011;63974;47.538;18.972;2024-01-06T10:28:12;13.98;;;9.35;;
75400;SDS011;63974;47.538;18.972;2024-01-06T10:31:18;14.50;;;8.32;;
75400;SDS011;63974;47.538;18.972;2024-01-06T10:34:21;13.57;;;8.52;;
75400;SDS011;63974;47.538;18.972;2024-01-06T10:37:27;17.40;;;8.70;;
75400;SDS011;63974;47.538;18.972;2024-01-06T10:40:30;15.33;;;8.57;;
75400;SDS011;63974;47.538;18.972;2024-01-06T10:43:33;15.70;;;8.13;;
75400;SDS011;63974;47.538;18.972;2024-01-06T10:46:38;15.20;;;9.13;;
75400;SDS011;63974;47.538;18.972;2024-01-06T10:49:42;16.30;;;10.02;;
75400;SDS011;63974;47.538;18.972;2024-01-06T10:52:46;16.83;;;9.80;;
75400;SDS011;63974;47.538;18.972;2024-01-06T10:55:50;18.17;;;10.33;;
75400;SDS011;63974;47.538;18.972;2024-01-06T10:58:57;21.08;;;11.45;;
75400;SDS011;63974;47.538;18.972;2024-01-06T11:02:02;19.85;;;11.77;;
75400;SDS011;63974;47.538;18.972;2024-01-06T11:05:06;20.48;;;10.98;;
75400;SDS011;63974;47.538;18.972;2024-01-06T11:08:12;17.67;;;11.07;;
75400;SDS011;63974;47.538;18.972;2024-01-06T11:11:18;19.23;;;11.83;;
75400;SDS011;63974;47.538;18.972;2024-01-06T11:14:25;22.05;;;11.48;;
75400;SDS011;63974;47.538;18.972;2024-01-06T11:24:16;21.87;;;10.93;;
75400;SDS011;63974;47.538;18.972;2024-01-06T11:27:27;19.07;;;10.80;;
75400;SDS011;63974;47.538;18.972;2024-01-06T11:30:31;17.33;;;10.10;;
75400;SDS011;63974;47.538;18.972;2024-01-06T11:33:45;16.33;;;9.70;;
75400;SDS011;63974;47.538;18.972;2024-01-06T11:36:51;16.58;;;10.18;;
75400;SDS011;63974;47.538;18.972;2024-01-06T11:39:54;17.00;;;9.90;;
75400;SDS011;63974;47.538;18.972;2024-01-06T11:46:00;18.58;;;10.75;;
75400;SDS011;63974;47.538;18.972;2024-01-06T11:49:04;16.83;;;11.00;;
75400;SDS011;63974;47.538;18.972;2024-01-06T11:52:11;19.08;;;11.98;;
75400;SDS011;63974;47.538;18.972;2024-01-06T11:55:17;18.87;;;11.43;;
75400;SDS011;63974;47.538;18.972;2024-01-06T11:58:21;18.27;;;10.23;;
75400;SDS011;63974;47.538;18.972;2024-01-06T12:01:23;20.23;;;10.23;;
75400;SDS011;63974;47.538;18.972;2024-01-06T12:04:27;15.52;;;9.27;;
75400;SDS011;63974;47.538;18.972;2024-01-06T12:07:31;15.52;;;9.57;;
75400;SDS011;63974;47.538;18.972;2024-01-06T12:10:37;18.43;;;10.53;;
75400;SDS011;63974;47.538;18.972;2024-01-06T12:13:40;16.07;;;9.57;;
75400;SDS011;63974;47.538;18.972;2024-01-06T12:16:42;20.58;;;11.50;;
75400;SDS011;63974;47.538;18.972;2024-01-06T12:19:45;18.65;;;11.05;;
75400;SDS011;63974;47.538;18.972;2024-01-06T12:22:49;17.92;;;11.30;;
75400;SDS011;63974;47.538;18.972;2024-01-06T12:25:54;17.80;;;10.30;;
75400;SDS011;63974;47.538;18.972;2024-01-06T12:28:58;21.90;;;12.23;;
75400;SDS011;63974;47.538;18.972;2024-01-06T12:32:00;16.63;;;11.43;;
75400;SDS011;63974;47.538;18.972;2024-01-06T12:35:03;18.50;;;11.10;;
75400;SDS011;63974;47.538;18.972;2024-01-06T12:38:08;18.83;;;10.32;;
75400;SDS011;63974;47.538;18.972;2024-01-06T12:41:11;16.00;;;10.07;;
75400;SDS011;63974;47.538;18.972;2024-01-06T12:44:13;18.00;;;11.77;;
75400;SDS011;63974;47.538;18.972;2024-01-06T12:47:16;21.17;;;12.05;;
75400;SDS011;63974;47.538;18.972;2024-01-06T12:50:19;19.50;;;11.73;;
75400;SDS011;63974;47.538;18.972;2024-01-06T12:53:22;19.38;;;10.40;;
75400;SDS011;63974;47.538;18.972;2024-01-06T12:56:24;16.70;;;9.77;;
75400;SDS011;63974;47.538;18.972;2024-01-06T12:59:27;15.53;;;10.70;;
75400;SDS011;63974;47.538;18.972;2024-01-06T13:02:30;17.60;;;11.57;;
75400;SDS011;63974;47.538;18.972;2024-01-06T13:05:32;17.20;;;10.25;;
75400;SDS011;63974;47.538;18.972;2024-01-06T13:08:35;17.95;;;10.73;;
75400;SDS011;63974;47.538;18.972;2024-01-06T13:11:38;20.90;;;11.63;;
75400;SDS011;63974;47.538;18.972;2024-01-06T13:14:41;17.83;;;10.47;;
75400;SDS011;63974;47.538;18.972;2024-01-06T13:17:46;17.55;;;11.23;;
75400;SDS011;63974;47.538;18.972;2024-01-06T13:20:49;19.80;;;11.77;;
75400;SDS011;63974;47.538;18.972;2024-01-06T13:23:52;20.05;;;12.77;;
75400;SDS011;63974;47.538;18.972;2024-01-06T13:26:54;20.13;;;12.70;;
75400;SDS011;63974;47.538;18.972;2024-01-06T13:29:57;21.93;;;13.40;;
75400;SDS011;63974;47.538;18.972;2024-01-06T13:33:01;23.30;;;13.45;;
75400;SDS011;63974;47.538;18.972;2024-01-06T13:36:04;25.58;;;13.93;;
75400;SDS011;63974;47.538;18.972;2024-01-06T13:39:06;23.02;;;13.82;;
75400;SDS011;63974;47.538;18.972;2024-01-06T13:42:09;24.17;;;15.17;;
75400;SDS011;63974;47.538;18.972;2024-01-06T13:45:12;29.97;;;17.10;;
75400;SDS011;63974;47.538;18.972;2024-01-06T13:48:15;33.53;;;18.70;;
75400;SDS011;63974;47.538;18.972;2024-01-06T13:51:18;24.90;;;15.60;;
75400;SDS011;63974;47.538;18.972;2024-01-06T13:54:21;27.20;;;14.70;;
75400;SDS011;63974;47.538;18.972;2024-01-06T13:57:24;24.27;;;14.37;;
75400;SDS011;63974;47.538;18.972;2024-01-06T14:00:27;23.63;;;13.77;;
75400;SDS011;63974;47.538;18.972;2024-01-06T14:03:30;24.23;;;14.13;;
75400;SDS011;63974;47.538;18.972;2024-01-06T14:06:33;22.48;;;13.02;;
75400;SDS011;63974;47.538;18.972;2024-01-06T14:09:36;24.33;;;13.60;;
75400;SDS011;63974;47.538;18.972;2024-01-06T14:12:39;22.53;;;12.97;;
75400;SDS011;63974;47.538;18.972;2024-01-06T14:15:43;22.30;;;12.23;;
75400;SDS011;63974;47.538;18.972;2024-01-06T14:18:46;25.23;;;13.80;;
75400;SDS011;63974;47.538;18.972;2024-01-06T14:21:49;23.77;;;13.80;;
75400;SDS011;63974;47.538;18.972;2024-01-06T14:24:53;20.90;;;11.77;;
75400;SDS011;63974;47.538;18.972;2024-01-06T14:27:55;19.47;;;10.97;;
75400;SDS011;63974;47.538;18.972;2024-01-06T14:30:58;26.13;;;14.00;;
75400;SDS011;63974;47.538;18.972;2024-01-06T14:34:01;26.00;;;13.63;;
75400;SDS011;63974;47.538;18.972;2024-01-06T14:37:05;27.40;;;14.85;;
75400;SDS011;63974;47.538;18.972;2024-01-06T14:40:08;19.35;;;12.45;;
75400;SDS011;63974;47.538;18.972;2024-01-06T14:43:11;23.63;;;13.13;;
75400;SDS011;63974;47.538;18.972;2024-01-06T14:46:14;24.43;;;13.93;;
75400;SDS011;63974;47.538;18.972;2024-01-06T14:49:16;39.00;;;21.48;;
75400;SDS011;63974;47.538;18.972;2024-01-06T14:52:20;28.27;;;16.95;;
75400;SDS011;63974;47.538;18.972;2024-01-06T14:55:22;22.23;;;12.85;;
75400;SDS011;63974;47.538;18.972;2024-01-06T14:58:25;26.90;;;14.50;;
75400;SDS011;63974;47.538;18.972;2024-01-06T15:01:28;28.47;;;14.47;;
75400;SDS011;63974;47.538;18.972;2024-01-06T15:04:31;28.42;;;16.05;;
75400;SDS011;63974;47.538;18.972;2024-01-06T15:07:33;35.05;;;19.25;;
75400;SDS011;63974;47.538;18.972;2024-01-06T15:10:37;32.97;;;19.27;;
75400;SDS011;63974;47.538;18.972;2024-01-06T15:13:40;34.40;;;18.40;;
75400;SDS011;63974;47.538;18.972;2024-01-06T15:16:43;32.97;;;19.40;;
75400;SDS011;63974;47.538;18.972;2024-01-06T15:19:46;35.63;;;19.67;;
75400;SDS011;63974;47.538;18.972;2024-01-06T15:22:49;41.65;;;22.23;;
75400;SDS011;63974;47.538;18.972;2024-01-06T15:25:52;51.13;;;29.95;;
75400;SDS011;63974;47.538;18.972;2024-01-06T15:28:55;38.20;;;23.30;;
75400;SDS011;63974;47.538;18.972;2024-01-06T15:32:00;39.77;;;22.07;;
75400;SDS011;63974;47.538;18.972;2024-01-06T15:35:03;27.80;;;15.85;;
75400;SDS011;63974;47.538;18.972;2024-01-06T15:38:08;28.42;;;16.15;;
75400;SDS011;63974;47.538;18.972;2024-01-06T15:41:10;49.05;;;23.17;;
75400;SDS011;63974;47.538;18.972;2024-01-06T15:44:13;41.27;;;21.47;;
75400;SDS011;63974;47.538;18.972;2024-01-06T15:47:16;42.90;;;20.50;;
75400;SDS011;63974;47.538;18.972;2024-01-06T15:50:18;31.38;;;18.73;;
75400;SDS011;63974;47.538;18.972;2024-01-06T15:53:21;54.53;;;28.27;;
75400;SDS011;63974;47.538;18.972;2024-01-06T15:56:24;47.03;;;25.25;;
75400;SDS011;63974;47.538;18.972;2024-01-06T15:59:27;45.83;;;24.40;;
75400;SDS011;63974;47.538;18.972;2024-01-06T16:02:29;37.23;;;21.57;;
75400;SDS011;63974;47.538;18.972;2024-01-06T16:05:32;40.70;;;21.63;;
75400;SDS011;63974;47.538;18.972;2024-01-06T16:08:35;43.17;;;23.70;;
75400;SDS011;63974;47.538;18.972;2024-01-06T16:11:38;40.55;;;23.27;;
75400;SDS011;63974;47.538;18.972;2024-01-06T16:14:41;39.60;;;20.43;;
75400;SDS011;63974;47.538;18.972;2024-01-06T16:17:44;37.93;;;21.50;;
75400;SDS011;63974;47.538;18.972;2024-01-06T16:20:47;36.13;;;19.38;;
75400;SDS011;63974;47.538;18.972;2024-01-06T16:23:50;30.30;;;18.17;;
75400;SDS011;63974;47.538;18.972;2024-01-06T16:26:54;38.83;;;19.83;;
75400;SDS011;63974;47.538;18.972;2024-01-06T16:29:57;32.97;;;17.13;;
75400;SDS011;63974;47.538;18.972;2024-01-06T16:32:59;29.13;;;17.23;;
75400;SDS011;63974;47.538;18.972;2024-01-06T16:36:03;27.17;;;15.30;;
75400;SDS011;63974;47.538;18.972;2024-01-06T16:39:11;26.73;;;16.20;;
75400;SDS011;63974;47.538;18.972;2024-01-06T16:42:14;29.02;;;16.35;;
75400;SDS011;63974;47.538;18.972;2024-01-06T16:45:17;32.43;;;16.63;;
75400;SDS011;63974;47.538;18.972;2024-01-06T16:48:20;23.93;;;13.80;;
75400;SDS011;63974;47.538;18.972;2024-01-06T16:51:23;22.73;;;13.40;;
75400;SDS011;63974;47.538;18.972;2024-01-06T16:54:26;23.85;;;13.70;;
75400;SDS011;63974;47.538;18.972;2024-01-06T16:57:29;24.25;;;13.60;;
75400;SDS011;63974;47.538;18.972;2024-01-06T17:00:33;20.03;;;13.27;;
75400;SDS011;63974;47.538;18.972;2024-01-06T17:03:36;22.67;;;12.63;;
75400;SDS011;63974;47.538;18.972;2024-01-06T17:06:40;22.42;;;12.48;;
75400;SDS011;63974;47.538;18.972;2024-01-06T17:09:43;23.02;;;14.30;;
75400;SDS011;63974;47.538;18.972;2024-01-06T17:12:49;27.52;;;16.15;;
75400;SDS011;63974;47.538;18.972;2024-01-06T17:15:52;30.03;;;15.90;;
75400;SDS011;63974;47.538;18.972;2024-01-06T17:18:55;30.57;;;17.90;;
75400;SDS011;63974;47.538;18.972;2024-01-06T17:21:58;27.48;;;14.35;;
75400;SDS011;63974;47.538;18.972;2024-01-06T17:25:01;20.80;;;13.25;;
75400;SDS011;63974;47.538;18.972;2024-01-06T17:28:04;25.90;;;13.20;;
75400;SDS011;63974;47.538;18.972;2024-01-06T17:31:07;23.40;;;13.33;;
75400;SDS011;63974;47.538;18.972;2024-01-06T17:34:10;22.40;;;11.40;;
75400;SDS011;63974;47.538;18.972;2024-01-06T17:37:12;19.05;;;11.32;;
75400;SDS011;63974;47.538;18.972;2024-01-06T17:40:15;22.85;;;12.07;;
75400;SDS011;63974;47.538;18.972;2024-01-06T17:43:19;21.70;;;13.02;;
75400;SDS011;63974;47.538;18.972;2024-01-06T17:46:22;21.63;;;12.70;;
75400;SDS011;63974;47.538;18.972;2024-01-06T17:49:27;24.97;;;14.13;;